KALS

San Luis Valley Regional / Bergman Field Airport

Alamosa, Colorado, USA
KALS 221347Z 2214/2312 VRB06KT P6SM SKC TEMPO 2214/2216 3SM BR SCT002 FM222000 22008KT P6SM SKC FM230200 VRB06KT P6SM SKC
Issued Valid From Valid To
Sep-22 @ 13:47 UTC
(2 hours ago)
Sep-22 @ 14:00 UTC
(an hour ago)
Sep-23 @ 12:00 UTC
(in 21 hours)
to
to
to
to
KALS 221347Z 2214/2312 VRB06KT P6SM SKC TEMPO 2214/2216 3SM BR SCT002 FM222000 22008KT P6SM SKC FM230200 VRB06KT P6SM SKC
Issued Sep-22 @ 13:47 UTC
(2 hours ago)
Valid From Sep-22 @ 14:00 UTC
(an hour ago)
Valid To Sep-23 @ 12:00 UTC
(in 21 hours)
-
-
-
-